sensor_id;sensor_type;location;lat;lon;timestamp;P1;durP1;ratioP1;P2;durP2;ratioP2
49998;SDS011;68071;45.062;7.356;2023-11-21T00:02:57;54.50;;;44.95;;
49998;SDS011;68071;45.062;7.356;2023-11-21T00:06:01;59.95;;;49.50;;
49998;SDS011;68071;45.062;7.356;2023-11-21T00:09:06;64.50;;;51.72;;
49998;SDS011;68071;45.062;7.356;2023-11-21T00:12:12;63.38;;;52.92;;
49998;SDS011;68071;45.062;7.356;2023-11-21T00:15:17;66.15;;;51.65;;
49998;SDS011;68071;45.062;7.356;2023-11-21T00:18:22;50.70;;;44.53;;
49998;SDS011;68071;45.062;7.356;2023-11-21T00:21:26;49.20;;;42.00;;
49998;SDS011;68071;45.062;7.356;2023-11-21T00:24:30;52.65;;;44.92;;
49998;SDS011;68071;45.062;7.356;2023-11-21T00:27:35;49.90;;;44.30;;
49998;SDS011;68071;45.062;7.356;2023-11-21T00:30:39;41.00;;;36.50;;
49998;SDS011;68071;45.062;7.356;2023-11-21T00:33:43;53.53;;;45.72;;
49998;SDS011;68071;45.062;7.356;2023-11-21T00:36:47;56.75;;;46.83;;
49998;SDS011;68071;45.062;7.356;2023-11-21T00:39:51;57.60;;;50.17;;
49998;SDS011;68071;45.062;7.356;2023-11-21T00:42:55;64.10;;;52.78;;
49998;SDS011;68071;45.062;7.356;2023-11-21T00:45:59;61.08;;;47.70;;
49998;SDS011;68071;45.062;7.356;2023-11-21T00:49:03;53.13;;;45.13;;
49998;SDS011;68071;45.062;7.356;2023-11-21T00:52:07;56.33;;;44.47;;
49998;SDS011;68071;45.062;7.356;2023-11-21T00:55:12;52.72;;;44.75;;
49998;SDS011;68071;45.062;7.356;2023-11-21T00:58:16;53.15;;;45.85;;
49998;SDS011;68071;45.062;7.356;2023-11-21T01:01:20;56.35;;;46.67;;
49998;SDS011;68071;45.062;7.356;2023-11-21T01:04:28;57.13;;;47.13;;
49998;SDS011;68071;45.062;7.356;2023-11-21T01:07:32;51.97;;;42.40;;
49998;SDS011;68071;45.062;7.356;2023-11-21T01:10:36;46.15;;;40.05;;
49998;SDS011;68071;45.062;7.356;2023-11-21T01:13:41;44.30;;;39.15;;
49998;SDS011;68071;45.062;7.356;2023-11-21T01:16:46;49.80;;;42.78;;
49998;SDS011;68071;45.062;7.356;2023-11-21T01:19:50;45.97;;;40.25;;
49998;SDS011;68071;45.062;7.356;2023-11-21T01:22:53;51.42;;;42.30;;
49998;SDS011;68071;45.062;7.356;2023-11-21T01:25:58;47.40;;;41.03;;
49998;SDS011;68071;45.062;7.356;2023-11-21T01:29:02;49.83;;;42.42;;
49998;SDS011;68071;45.062;7.356;2023-11-21T01:32:07;54.03;;;45.88;;
49998;SDS011;68071;45.062;7.356;2023-11-21T01:35:11;52.28;;;46.03;;
49998;SDS011;68071;45.062;7.356;2023-11-21T01:38:15;56.38;;;48.13;;
49998;SDS011;68071;45.062;7.356;2023-11-21T01:41:21;58.90;;;52.63;;
49998;SDS011;68071;45.062;7.356;2023-11-21T01:44:25;62.30;;;54.45;;
49998;SDS011;68071;45.062;7.356;2023-11-21T01:47:29;60.50;;;53.67;;
49998;SDS011;68071;45.062;7.356;2023-11-21T01:50:33;55.47;;;49.17;;
49998;SDS011;68071;45.062;7.356;2023-11-21T01:53:37;66.43;;;55.33;;
49998;SDS011;68071;45.062;7.356;2023-11-21T01:56:46;64.18;;;54.33;;
49998;SDS011;68071;45.062;7.356;2023-11-21T01:59:50;60.33;;;51.05;;
49998;SDS011;68071;45.062;7.356;2023-11-21T02:02:57;60.75;;;52.80;;
49998;SDS011;68071;45.062;7.356;2023-11-21T02:06:03;62.08;;;52.50;;
49998;SDS011;68071;45.062;7.356;2023-11-21T02:09:07;61.50;;;51.42;;
49998;SDS011;68071;45.062;7.356;2023-11-21T02:12:12;65.00;;;54.30;;
49998;SDS011;68071;45.062;7.356;2023-11-21T02:15:16;54.53;;;47.15;;
49998;SDS011;68071;45.062;7.356;2023-11-21T02:18:24;46.25;;;39.53;;
49998;SDS011;68071;45.062;7.356;2023-11-21T02:21:29;51.53;;;44.00;;
49998;SDS011;68071;45.062;7.356;2023-11-21T02:24:34;46.08;;;39.92;;
49998;SDS011;68071;45.062;7.356;2023-11-21T02:27:38;53.17;;;45.80;;
49998;SDS011;68071;45.062;7.356;2023-11-21T02:30:42;50.00;;;42.80;;
49998;SDS011;68071;45.062;7.356;2023-11-21T02:33:47;50.97;;;44.03;;
49998;SDS011;68071;45.062;7.356;2023-11-21T02:36:51;55.80;;;45.95;;
49998;SDS011;68071;45.062;7.356;2023-11-21T02:39:55;57.13;;;46.20;;
49998;SDS011;68071;45.062;7.356;2023-11-21T02:42:59;57.53;;;45.60;;
49998;SDS011;68071;45.062;7.356;2023-11-21T02:46:03;51.92;;;43.13;;
49998;SDS011;68071;45.062;7.356;2023-11-21T02:49:07;55.28;;;45.58;;
49998;SDS011;68071;45.062;7.356;2023-11-21T02:55:17;47.08;;;41.38;;
49998;SDS011;68071;45.062;7.356;2023-11-21T02:58:22;48.58;;;40.40;;
49998;SDS011;68071;45.062;7.356;2023-11-21T03:01:26;45.35;;;38.63;;
49998;SDS011;68071;45.062;7.356;2023-11-21T03:04:31;47.30;;;39.53;;
49998;SDS011;68071;45.062;7.356;2023-11-21T03:07:39;50.58;;;41.35;;
49998;SDS011;68071;45.062;7.356;2023-11-21T03:10:43;56.65;;;47.05;;
49998;SDS011;68071;45.062;7.356;2023-11-21T03:13:47;49.33;;;40.47;;
49998;SDS011;68071;45.062;7.356;2023-11-21T03:16:51;48.33;;;41.17;;
49998;SDS011;68071;45.062;7.356;2023-11-21T03:19:55;44.83;;;37.90;;
49998;SDS011;68071;45.062;7.356;2023-11-21T03:23:01;43.47;;;37.67;;
49998;SDS011;68071;45.062;7.356;2023-11-21T03:26:04;40.90;;;34.75;;
49998;SDS011;68071;45.062;7.356;2023-11-21T03:29:13;45.25;;;38.53;;
49998;SDS011;68071;45.062;7.356;2023-11-21T03:32:18;59.90;;;47.40;;
49998;SDS011;68071;45.062;7.356;2023-11-21T03:35:22;63.75;;;50.63;;
49998;SDS011;68071;45.062;7.356;2023-11-21T03:38:26;67.53;;;53.60;;
49998;SDS011;68071;45.062;7.356;2023-11-21T03:41:31;60.88;;;49.60;;
49998;SDS011;68071;45.062;7.356;2023-11-21T03:44:35;49.08;;;42.60;;
49998;SDS011;68071;45.062;7.356;2023-11-21T03:47:38;42.55;;;36.80;;
49998;SDS011;68071;45.062;7.356;2023-11-21T03:50:42;46.72;;;40.38;;
49998;SDS011;68071;45.062;7.356;2023-11-21T03:53:46;56.65;;;43.83;;
49998;SDS011;68071;45.062;7.356;2023-11-21T03:56:50;43.88;;;37.28;;
49998;SDS011;68071;45.062;7.356;2023-11-21T03:59:55;59.53;;;46.40;;
49998;SDS011;68071;45.062;7.356;2023-11-21T04:02:59;60.65;;;47.17;;
49998;SDS011;68071;45.062;7.356;2023-11-21T04:06:04;48.78;;;39.63;;
49998;SDS011;68071;45.062;7.356;2023-11-21T04:09:09;49.70;;;40.03;;
49998;SDS011;68071;45.062;7.356;2023-11-21T04:12:13;55.38;;;43.90;;
49998;SDS011;68071;45.062;7.356;2023-11-21T04:15:18;48.60;;;39.17;;
49998;SDS011;68071;45.062;7.356;2023-11-21T04:18:22;68.72;;;55.38;;
49998;SDS011;68071;45.062;7.356;2023-11-21T04:21:26;67.97;;;51.83;;
49998;SDS011;68071;45.062;7.356;2023-11-21T04:24:30;55.08;;;42.72;;
49998;SDS011;68071;45.062;7.356;2023-11-21T04:27:34;57.95;;;45.30;;
49998;SDS011;68071;45.062;7.356;2023-11-21T04:30:38;80.82;;;57.67;;
49998;SDS011;68071;45.062;7.356;2023-11-21T04:33:43;84.72;;;62.25;;
49998;SDS011;68071;45.062;7.356;2023-11-21T04:36:49;83.13;;;60.00;;
49998;SDS011;68071;45.062;7.356;2023-11-21T04:39:53;44.80;;;24.25;;
49998;SDS011;68071;45.062;7.356;2023-11-21T04:42:57;64.95;;;49.35;;
49998;SDS011;68071;45.062;7.356;2023-11-21T04:46:01;54.63;;;43.25;;
49998;SDS011;68071;45.062;7.356;2023-11-21T04:49:05;62.90;;;46.05;;
49998;SDS011;68071;45.062;7.356;2023-11-21T04:52:09;69.90;;;51.72;;
49998;SDS011;68071;45.062;7.356;2023-11-21T04:55:14;75.10;;;56.47;;
49998;SDS011;68071;45.062;7.356;2023-11-21T04:58:19;48.37;;;24.93;;
49998;SDS011;68071;45.062;7.356;2023-11-21T05:01:24;38.72;;;22.25;;
49998;SDS011;68071;45.062;7.356;2023-11-21T05:04:28;44.22;;;21.63;;
49998;SDS011;68071;45.062;7.356;2023-11-21T05:07:32;50.65;;;24.50;;
49998;SDS011;68071;45.062;7.356;2023-11-21T05:10:36;42.70;;;21.33;;
49998;SDS011;68071;45.062;7.356;2023-11-21T05:13:42;48.90;;;24.58;;
49998;SDS011;68071;45.062;7.356;2023-11-21T05:16:46;45.25;;;21.98;;
49998;SDS011;68071;45.062;7.356;2023-11-21T05:19:50;47.42;;;23.60;;
49998;SDS011;68071;45.062;7.356;2023-11-21T05:22:54;47.15;;;22.20;;
49998;SDS011;68071;45.062;7.356;2023-11-21T05:25:58;65.13;;;47.75;;
49998;SDS011;68071;45.062;7.356;2023-11-21T05:29:02;61.60;;;45.83;;
49998;SDS011;68071;45.062;7.356;2023-11-21T05:32:06;47.15;;;22.35;;
49998;SDS011;68071;45.062;7.356;2023-11-21T05:35:10;54.55;;;25.55;;
49998;SDS011;68071;45.062;7.356;2023-11-21T05:38:18;53.55;;;25.65;;
49998;SDS011;68071;45.062;7.356;2023-11-21T05:41:25;31.35;;;18.65;;
49998;SDS011;68071;45.062;7.356;2023-11-21T05:44:29;37.88;;;19.45;;
49998;SDS011;68071;45.062;7.356;2023-11-21T05:47:33;42.08;;;18.83;;
49998;SDS011;68071;45.062;7.356;2023-11-21T05:50:37;47.08;;;26.48;;
49998;SDS011;68071;45.062;7.356;2023-11-21T05:53:41;31.58;;;15.85;;
49998;SDS011;68071;45.062;7.356;2023-11-21T05:56:46;40.53;;;31.58;;
49998;SDS011;68071;45.062;7.356;2023-11-21T05:59:50;37.35;;;30.88;;
49998;SDS011;68071;45.062;7.356;2023-11-21T06:02:55;41.53;;;34.20;;
49998;SDS011;68071;45.062;7.356;2023-11-21T06:05:59;31.38;;;16.77;;
49998;SDS011;68071;45.062;7.356;2023-11-21T06:09:02;33.90;;;19.27;;
49998;SDS011;68071;45.062;7.356;2023-11-21T06:12:07;39.88;;;18.80;;
49998;SDS011;68071;45.062;7.356;2023-11-21T06:15:11;30.98;;;17.70;;
49998;SDS011;68071;45.062;7.356;2023-11-21T06:18:19;39.58;;;33.30;;
49998;SDS011;68071;45.062;7.356;2023-11-21T06:21:23;47.88;;;38.38;;
49998;SDS011;68071;45.062;7.356;2023-11-21T06:24:27;57.10;;;46.90;;
49998;SDS011;68071;45.062;7.356;2023-11-21T06:27:32;43.07;;;22.17;;
49998;SDS011;68071;45.062;7.356;2023-11-21T06:30:36;40.20;;;21.67;;
49998;SDS011;68071;45.062;7.356;2023-11-21T06:33:41;51.70;;;25.07;;
49998;SDS011;68071;45.062;7.356;2023-11-21T06:36:46;66.15;;;49.72;;
49998;SDS011;68071;45.062;7.356;2023-11-21T06:39:50;47.67;;;24.33;;
49998;SDS011;68071;45.062;7.356;2023-11-21T06:42:55;44.63;;;20.75;;
49998;SDS011;68071;45.062;7.356;2023-11-21T06:46:02;56.63;;;42.83;;
49998;SDS011;68071;45.062;7.356;2023-11-21T06:49:08;43.88;;;35.53;;
49998;SDS011;68071;45.062;7.356;2023-11-21T06:52:12;36.15;;;32.13;;
49998;SDS011;68071;45.062;7.356;2023-11-21T06:55:17;48.67;;;37.83;;
49998;SDS011;68071;45.062;7.356;2023-11-21T06:58:21;33.40;;;17.77;;
49998;SDS011;68071;45.062;7.356;2023-11-21T07:01:26;34.92;;;20.70;;
49998;SDS011;68071;45.062;7.356;2023-11-21T07:04:29;38.78;;;21.73;;
49998;SDS011;68071;45.062;7.356;2023-11-21T07:07:34;53.33;;;23.27;;
49998;SDS011;68071;45.062;7.356;2023-11-21T07:10:39;41.90;;;31.63;;
49998;SDS011;68071;45.062;7.356;2023-11-21T07:13:43;37.17;;;20.13;;
49998;SDS011;68071;45.062;7.356;2023-11-21T07:16:47;33.60;;;17.10;;
49998;SDS011;68071;45.062;7.356;2023-11-21T07:19:51;24.00;;;12.32;;
49998;SDS011;68071;45.062;7.356;2023-11-21T07:22:55;29.52;;;15.23;;
49998;SDS011;68071;45.062;7.356;2023-11-21T07:25:59;43.15;;;33.55;;
49998;SDS011;68071;45.062;7.356;2023-11-21T07:29:03;38.03;;;20.20;;
49998;SDS011;68071;45.062;7.356;2023-11-21T07:35:16;31.05;;;13.63;;
49998;SDS011;68071;45.062;7.356;2023-11-21T07:38:20;42.00;;;23.48;;
49998;SDS011;68071;45.062;7.356;2023-11-21T07:41:24;23.33;;;11.55;;
49998;SDS011;68071;45.062;7.356;2023-11-21T07:44:28;23.75;;;12.13;;
49998;SDS011;68071;45.062;7.356;2023-11-21T07:47:32;31.52;;;16.42;;
49998;SDS011;68071;45.062;7.356;2023-11-21T07:50:37;21.73;;;12.25;;
49998;SDS011;68071;45.062;7.356;2023-11-21T07:53:41;34.67;;;28.38;;
49998;SDS011;68071;45.062;7.356;2023-11-21T07:56:45;45.45;;;34.25;;
49998;SDS011;68071;45.062;7.356;2023-11-21T07:59:49;44.92;;;35.67;;
49998;SDS011;68071;45.062;7.356;2023-11-21T08:02:53;50.00;;;39.65;;
49998;SDS011;68071;45.062;7.356;2023-11-21T08:05:57;51.08;;;39.38;;
49998;SDS011;68071;45.062;7.356;2023-11-21T08:09:01;54.80;;;45.15;;
49998;SDS011;68071;45.062;7.356;2023-11-21T08:12:06;51.97;;;44.33;;
49998;SDS011;68071;45.062;7.356;2023-11-21T08:15:11;49.83;;;42.45;;
49998;SDS011;68071;45.062;7.356;2023-11-21T08:18:15;54.65;;;40.67;;
49998;SDS011;68071;45.062;7.356;2023-11-21T08:24:27;46.83;;;39.05;;
49998;SDS011;68071;45.062;7.356;2023-11-21T08:27:31;41.63;;;34.88;;
49998;SDS011;68071;45.062;7.356;2023-11-21T08:30:35;45.65;;;38.28;;
49998;SDS011;68071;45.062;7.356;2023-11-21T08:33:39;44.38;;;36.58;;
49998;SDS011;68071;45.062;7.356;2023-11-21T08:36:43;42.10;;;36.17;;
49998;SDS011;68071;45.062;7.356;2023-11-21T08:39:49;41.78;;;35.83;;
49998;SDS011;68071;45.062;7.356;2023-11-21T08:42:53;45.38;;;36.92;;
49998;SDS011;68071;45.062;7.356;2023-11-21T08:45:57;47.28;;;37.53;;
49998;SDS011;68071;45.062;7.356;2023-11-21T08:49:01;36.47;;;32.50;;
49998;SDS011;68071;45.062;7.356;2023-11-21T08:52:05;41.50;;;35.38;;
49998;SDS011;68071;45.062;7.356;2023-11-21T08:55:10;36.85;;;32.97;;
49998;SDS011;68071;45.062;7.356;2023-11-21T08:58:16;35.97;;;30.52;;
49998;SDS011;68071;45.062;7.356;2023-11-21T09:01:21;33.77;;;29.73;;
49998;SDS011;68071;45.062;7.356;2023-11-21T09:04:24;37.00;;;33.13;;
49998;SDS011;68071;45.062;7.356;2023-11-21T09:07:29;34.25;;;30.42;;
49998;SDS011;68071;45.062;7.356;2023-11-21T09:10:34;34.35;;;30.65;;
49998;SDS011;68071;45.062;7.356;2023-11-21T09:13:41;35.70;;;31.65;;
49998;SDS011;68071;45.062;7.356;2023-11-21T09:16:45;36.25;;;32.35;;
49998;SDS011;68071;45.062;7.356;2023-11-21T09:19:50;43.08;;;37.03;;
49998;SDS011;68071;45.062;7.356;2023-11-21T09:22:55;48.20;;;41.38;;
49998;SDS011;68071;45.062;7.356;2023-11-21T09:25:59;40.60;;;36.22;;
49998;SDS011;68071;45.062;7.356;2023-11-21T09:29:04;42.93;;;38.00;;
49998;SDS011;68071;45.062;7.356;2023-11-21T09:32:08;44.53;;;39.15;;
49998;SDS011;68071;45.062;7.356;2023-11-21T09:35:15;47.22;;;40.95;;
49998;SDS011;68071;45.062;7.356;2023-11-21T09:38:21;47.83;;;41.25;;
49998;SDS011;68071;45.062;7.356;2023-11-21T09:41:28;47.70;;;40.72;;
49998;SDS011;68071;45.062;7.356;2023-11-21T09:44:48;50.92;;;40.78;;
49998;SDS011;68071;45.062;7.356;2023-11-21T09:48:17;45.67;;;40.58;;
49998;SDS011;68071;45.062;7.356;2023-11-21T09:51:21;45.47;;;40.22;;
49998;SDS011;68071;45.062;7.356;2023-11-21T09:54:33;47.72;;;41.58;;
49998;SDS011;68071;45.062;7.356;2023-11-21T09:57:38;49.15;;;43.30;;
49998;SDS011;68071;45.062;7.356;2023-11-21T10:00:45;49.88;;;43.28;;
49998;SDS011;68071;45.062;7.356;2023-11-21T10:03:53;51.88;;;42.58;;
49998;SDS011;68071;45.062;7.356;2023-11-21T10:06:58;51.10;;;42.65;;
49998;SDS011;68071;45.062;7.356;2023-11-21T10:10:03;49.83;;;44.50;;
49998;SDS011;68071;45.062;7.356;2023-11-21T10:13:09;52.63;;;44.97;;
49998;SDS011;68071;45.062;7.356;2023-11-21T10:16:15;54.10;;;45.78;;
49998;SDS011;68071;45.062;7.356;2023-11-21T10:19:24;60.45;;;51.90;;
49998;SDS011;68071;45.062;7.356;2023-11-21T10:25:34;56.03;;;49.88;;
49998;SDS011;68071;45.062;7.356;2023-11-21T10:28:40;55.25;;;48.33;;
49998;SDS011;68071;45.062;7.356;2023-11-21T10:31:44;53.00;;;46.53;;
49998;SDS011;68071;45.062;7.356;2023-11-21T10:35:01;49.67;;;44.35;;
49998;SDS011;68071;45.062;7.356;2023-11-21T10:38:10;51.90;;;46.30;;
49998;SDS011;68071;45.062;7.356;2023-11-21T10:41:14;46.35;;;41.38;;
49998;SDS011;68071;45.062;7.356;2023-11-21T10:44:19;45.55;;;40.08;;
49998;SDS011;68071;45.062;7.356;2023-11-21T10:47:31;41.60;;;36.78;;
49998;SDS011;68071;45.062;7.356;2023-11-21T10:50:36;40.72;;;33.90;;
49998;SDS011;68071;45.062;7.356;2023-11-21T10:53:42;40.65;;;35.53;;
49998;SDS011;68071;45.062;7.356;2023-11-21T10:56:47;43.67;;;38.88;;
49998;SDS011;68071;45.062;7.356;2023-11-21T10:59:54;47.60;;;40.15;;
49998;SDS011;68071;45.062;7.356;2023-11-21T11:02:59;51.30;;;41.90;;
49998;SDS011;68071;45.062;7.356;2023-11-21T11:06:04;54.15;;;48.30;;
49998;SDS011;68071;45.062;7.356;2023-11-21T11:09:12;48.25;;;42.92;;
49998;SDS011;68071;45.062;7.356;2023-11-21T11:12:17;47.30;;;40.45;;
49998;SDS011;68071;45.062;7.356;2023-11-21T11:15:23;45.55;;;40.70;;
49998;SDS011;68071;45.062;7.356;2023-11-21T11:18:28;49.27;;;44.00;;
49998;SDS011;68071;45.062;7.356;2023-11-21T11:28:01;45.05;;;40.00;;
49998;SDS011;68071;45.062;7.356;2023-11-21T11:31:19;43.45;;;38.97;;
49998;SDS011;68071;45.062;7.356;2023-11-21T11:34:45;46.08;;;41.10;;
49998;SDS011;68071;45.062;7.356;2023-11-21T11:37:54;43.20;;;38.63;;
49998;SDS011;68071;45.062;7.356;2023-11-21T11:41:00;55.92;;;49.10;;
49998;SDS011;68071;45.062;7.356;2023-11-21T11:44:12;54.17;;;48.42;;
49998;SDS011;68071;45.062;7.356;2023-11-21T11:48:01;44.42;;;39.88;;
49998;SDS011;68071;45.062;7.356;2023-11-21T11:54:25;41.08;;;36.97;;
49998;SDS011;68071;45.062;7.356;2023-11-21T11:57:40;39.65;;;35.55;;
49998;SDS011;68071;45.062;7.356;2023-11-21T12:00:44;39.45;;;35.25;;
49998;SDS011;68071;45.062;7.356;2023-11-21T12:07:14;38.83;;;33.78;;
49998;SDS011;68071;45.062;7.356;2023-11-21T12:10:19;36.38;;;32.58;;
49998;SDS011;68071;45.062;7.356;2023-11-21T12:13:28;35.97;;;32.38;;
49998;SDS011;68071;45.062;7.356;2023-11-21T12:16:32;35.60;;;31.73;;
49998;SDS011;68071;45.062;7.356;2023-11-21T12:19:37;37.00;;;32.30;;
49998;SDS011;68071;45.062;7.356;2023-11-21T12:22:42;34.67;;;30.95;;
49998;SDS011;68071;45.062;7.356;2023-11-21T12:25:51;32.08;;;28.70;;
49998;SDS011;68071;45.062;7.356;2023-11-21T12:28:56;32.88;;;29.55;;
49998;SDS011;68071;45.062;7.356;2023-11-21T12:32:00;32.83;;;29.40;;
49998;SDS011;68071;45.062;7.356;2023-11-21T12:35:04;34.30;;;29.63;;
49998;SDS011;68071;45.062;7.356;2023-11-21T12:38:09;35.88;;;31.33;;
49998;SDS011;68071;45.062;7.356;2023-11-21T12:41:14;35.28;;;31.58;;
49998;SDS011;68071;45.062;7.356;2023-11-21T12:44:20;37.67;;;33.38;;
49998;SDS011;68071;45.062;7.356;2023-11-21T12:47:27;36.78;;;32.95;;
49998;SDS011;68071;45.062;7.356;2023-11-21T12:50:32;39.13;;;33.67;;
49998;SDS011;68071;45.062;7.356;2023-11-21T12:53:40;35.97;;;32.08;;
49998;SDS011;68071;45.062;7.356;2023-11-21T12:56:45;36.92;;;33.13;;
49998;SDS011;68071;45.062;7.356;2023-11-21T12:59:52;35.30;;;31.58;;
49998;SDS011;68071;45.062;7.356;2023-11-21T13:02:58;33.75;;;29.92;;
49998;SDS011;68071;45.062;7.356;2023-11-21T13:06:02;27.85;;;24.77;;
49998;SDS011;68071;45.062;7.356;2023-11-21T13:09:07;24.25;;;21.73;;
49998;SDS011;68071;45.062;7.356;2023-11-21T13:12:14;21.50;;;19.23;;
49998;SDS011;68071;45.062;7.356;2023-11-21T13:15:21;15.27;;;13.68;;
49998;SDS011;68071;45.062;7.356;2023-11-21T13:18:25;16.67;;;14.10;;
49998;SDS011;68071;45.062;7.356;2023-11-21T13:21:31;16.35;;;14.40;;
49998;SDS011;68071;45.062;7.356;2023-11-21T13:24:35;19.15;;;17.15;;
49998;SDS011;68071;45.062;7.356;2023-11-21T13:27:38;23.35;;;20.83;;
49998;SDS011;68071;45.062;7.356;2023-11-21T13:30:42;23.77;;;21.23;;
49998;SDS011;68071;45.062;7.356;2023-11-21T13:36:59;25.98;;;23.10;;
49998;SDS011;68071;45.062;7.356;2023-11-21T13:40:04;27.60;;;24.23;;
49998;SDS011;68071;45.062;7.356;2023-11-21T13:43:18;25.88;;;23.25;;
49998;SDS011;68071;45.062;7.356;2023-11-21T13:46:24;28.30;;;25.38;;
49998;SDS011;68071;45.062;7.356;2023-11-21T13:49:28;28.65;;;25.55;;
49998;SDS011;68071;45.062;7.356;2023-11-21T13:52:38;28.35;;;25.42;;
49998;SDS011;68071;45.062;7.356;2023-11-21T13:55:42;32.30;;;28.80;;
49998;SDS011;68071;45.062;7.356;2023-11-21T13:58:49;33.17;;;27.90;;
49998;SDS011;68071;45.062;7.356;2023-11-21T14:01:57;42.10;;;34.35;;
49998;SDS011;68071;45.062;7.356;2023-11-21T14:05:03;32.45;;;29.05;;
49998;SDS011;68071;45.062;7.356;2023-11-21T14:08:12;29.90;;;26.63;;
49998;SDS011;68071;45.062;7.356;2023-11-21T14:11:20;22.75;;;20.35;;
49998;SDS011;68071;45.062;7.356;2023-11-21T14:14:26;10.75;;;9.48;;
49998;SDS011;68071;45.062;7.356;2023-11-21T14:17:34;6.78;;;6.13;;
49998;SDS011;68071;45.062;7.356;2023-11-21T14:20:39;8.00;;;6.13;;
49998;SDS011;68071;45.062;7.356;2023-11-21T14:23:44;6.47;;;5.82;;
49998;SDS011;68071;45.062;7.356;2023-11-21T14:26:49;13.32;;;10.68;;
49998;SDS011;68071;45.062;7.356;2023-11-21T14:29:54;16.63;;;14.83;;
49998;SDS011;68071;45.062;7.356;2023-11-21T14:33:00;9.73;;;8.73;;
49998;SDS011;68071;45.062;7.356;2023-11-21T14:36:05;13.27;;;11.33;;
49998;SDS011;68071;45.062;7.356;2023-11-21T14:39:13;3.70;;;3.20;;
49998;SDS011;68071;45.062;7.356;2023-11-21T14:42:27;4.15;;;3.50;;
49998;SDS011;68071;45.062;7.356;2023-11-21T14:45:33;6.40;;;5.38;;
49998;SDS011;68071;45.062;7.356;2023-11-21T14:48:38;6.13;;;5.30;;
49998;SDS011;68071;45.062;7.356;2023-11-21T14:51:52;37.78;;;32.53;;
49998;SDS011;68071;45.062;7.356;2023-11-21T14:55:23;41.92;;;35.20;;
49998;SDS011;68071;45.062;7.356;2023-11-21T14:58:35;7.03;;;4.88;;
49998;SDS011;68071;45.062;7.356;2023-11-21T15:01:41;8.32;;;7.28;;
49998;SDS011;68071;45.062;7.356;2023-11-21T15:05:01;6.28;;;5.50;;
49998;SDS011;68071;45.062;7.356;2023-11-21T15:08:07;7.47;;;5.25;;
49998;SDS011;68071;45.062;7.356;2023-11-21T15:14:38;23.35;;;18.92;;
49998;SDS011;68071;45.062;7.356;2023-11-21T15:17:42;31.40;;;28.00;;
49998;SDS011;68071;45.062;7.356;2023-11-21T15:20:47;13.30;;;11.82;;
49998;SDS011;68071;45.062;7.356;2023-11-21T15:23:51;10.35;;;9.35;;
49998;SDS011;68071;45.062;7.356;2023-11-21T15:26:55;17.70;;;15.88;;
49998;SDS011;68071;45.062;7.356;2023-11-21T15:29:59;15.55;;;13.98;;
49998;SDS011;68071;45.062;7.356;2023-11-21T15:33:03;9.02;;;7.68;;
49998;SDS011;68071;45.062;7.356;2023-11-21T15:36:07;15.82;;;13.70;;
49998;SDS011;68071;45.062;7.356;2023-11-21T15:39:13;7.20;;;6.50;;
49998;SDS011;68071;45.062;7.356;2023-11-21T15:42:17;13.68;;;12.27;;
49998;SDS011;68071;45.062;7.356;2023-11-21T15:45:21;8.85;;;8.00;;
49998;SDS011;68071;45.062;7.356;2023-11-21T15:48:27;5.50;;;5.00;;
49998;SDS011;68071;45.062;7.356;2023-11-21T15:51:33;6.50;;;5.85;;
49998;SDS011;68071;45.062;7.356;2023-11-21T15:54:38;6.65;;;6.03;;
49998;SDS011;68071;45.062;7.356;2023-11-21T15:57:44;5.63;;;5.00;;
49998;SDS011;68071;45.062;7.356;2023-11-21T16:00:47;5.68;;;5.18;;
49998;SDS011;68071;45.062;7.356;2023-11-21T16:03:51;5.22;;;4.65;;
49998;SDS011;68071;45.062;7.356;2023-11-21T16:06:56;8.23;;;7.30;;
49998;SDS011;68071;45.062;7.356;2023-11-21T16:10:02;7.40;;;6.20;;
49998;SDS011;68071;45.062;7.356;2023-11-21T16:13:07;7.88;;;7.15;;
49998;SDS011;68071;45.062;7.356;2023-11-21T16:16:12;10.18;;;9.18;;
49998;SDS011;68071;45.062;7.356;2023-11-21T16:19:16;21.65;;;16.98;;
49998;SDS011;68071;45.062;7.356;2023-11-21T16:22:21;16.10;;;14.02;;
49998;SDS011;68071;45.062;7.356;2023-11-21T16:25:25;17.73;;;15.93;;
49998;SDS011;68071;45.062;7.356;2023-11-21T16:28:29;11.07;;;9.38;;
49998;SDS011;68071;45.062;7.356;2023-11-21T16:31:33;13.52;;;12.23;;
49998;SDS011;68071;45.062;7.356;2023-11-21T16:34:38;15.03;;;13.40;;
49998;SDS011;68071;45.062;7.356;2023-11-21T16:37:43;13.07;;;11.13;;
49998;SDS011;68071;45.062;7.356;2023-11-21T16:40:51;10.20;;;9.20;;
49998;SDS011;68071;45.062;7.356;2023-11-21T16:43:55;6.43;;;5.85;;
49998;SDS011;68071;45.062;7.356;2023-11-21T16:46:59;8.32;;;7.53;;
49998;SDS011;68071;45.062;7.356;2023-11-21T16:50:09;7.63;;;6.93;;
49998;SDS011;68071;45.062;7.356;2023-11-21T16:53:13;11.32;;;10.20;;
49998;SDS011;68071;45.062;7.356;2023-11-21T16:56:17;12.57;;;10.48;;
49998;SDS011;68071;45.062;7.356;2023-11-21T16:59:21;20.33;;;17.40;;
49998;SDS011;68071;45.062;7.356;2023-11-21T17:02:25;19.48;;;16.58;;
49998;SDS011;68071;45.062;7.356;2023-11-21T17:05:29;11.88;;;10.40;;
49998;SDS011;68071;45.062;7.356;2023-11-21T17:08:35;16.35;;;14.73;;
49998;SDS011;68071;45.062;7.356;2023-11-21T17:11:40;19.60;;;17.60;;
49998;SDS011;68071;45.062;7.356;2023-11-21T17:14:45;17.17;;;15.43;;
49998;SDS011;68071;45.062;7.356;2023-11-21T17:17:51;21.73;;;19.52;;
49998;SDS011;68071;45.062;7.356;2023-11-21T17:20:58;15.25;;;13.70;;
49998;SDS011;68071;45.062;7.356;2023-11-21T17:24:02;28.48;;;23.95;;
49998;SDS011;68071;45.062;7.356;2023-11-21T17:27:07;13.57;;;12.07;;
49998;SDS011;68071;45.062;7.356;2023-11-21T17:30:10;68.90;;;55.63;;
49998;SDS011;68071;45.062;7.356;2023-11-21T17:33:15;64.03;;;51.65;;
49998;SDS011;68071;45.062;7.356;2023-11-21T17:36:19;63.80;;;53.15;;
49998;SDS011;68071;45.062;7.356;2023-11-21T17:39:24;40.63;;;34.45;;
49998;SDS011;68071;45.062;7.356;2023-11-21T17:42:28;53.40;;;46.88;;
49998;SDS011;68071;45.062;7.356;2023-11-21T17:45:32;59.08;;;50.20;;
49998;SDS011;68071;45.062;7.356;2023-11-21T17:48:37;46.65;;;41.55;;
49998;SDS011;68071;45.062;7.356;2023-11-21T17:51:44;61.78;;;53.25;;
49998;SDS011;68071;45.062;7.356;2023-11-21T17:54:48;62.53;;;52.22;;
49998;SDS011;68071;45.062;7.356;2023-11-21T17:57:52;38.75;;;34.67;;
49998;SDS011;68071;45.062;7.356;2023-11-21T18:00:57;65.65;;;54.17;;
49998;SDS011;68071;45.062;7.356;2023-11-21T18:04:00;37.33;;;33.28;;
49998;SDS011;68071;45.062;7.356;2023-11-21T18:07:23;29.55;;;26.40;;
49998;SDS011;68071;45.062;7.356;2023-11-21T18:10:27;56.83;;;50.50;;
49998;SDS011;68071;45.062;7.356;2023-11-21T18:13:32;82.05;;;68.00;;
49998;SDS011;68071;45.062;7.356;2023-11-21T18:16:35;96.00;;;76.07;;
49998;SDS011;68071;45.062;7.356;2023-11-21T18:19:41;93.40;;;71.45;;
49998;SDS011;68071;45.062;7.356;2023-11-21T18:22:45;83.95;;;66.65;;
49998;SDS011;68071;45.062;7.356;2023-11-21T18:25:50;68.80;;;59.88;;
49998;SDS011;68071;45.062;7.356;2023-11-21T18:28:54;70.55;;;58.25;;
49998;SDS011;68071;45.062;7.356;2023-11-21T18:31:58;48.50;;;43.13;;
49998;SDS011;68071;45.062;7.356;2023-11-21T18:35:02;76.20;;;63.00;;
49998;SDS011;68071;45.062;7.356;2023-11-21T18:38:06;98.50;;;78.90;;
49998;SDS011;68071;45.062;7.356;2023-11-21T18:41:10;69.93;;;59.05;;